createdAt,value
2024-05-09T00:00:01.417Z,81.31
2024-05-09T00:01:08.288Z,81.33
2024-05-09T00:01:43.938Z,80.89
2024-05-09T00:02:16.967Z,80.81
2024-05-09T00:02:49.109Z,81.13
2024-05-09T00:03:23.225Z,80.74
2024-05-09T00:03:55.466Z,80.95
2024-05-09T00:04:27.501Z,81.22
2024-05-09T00:04:59.540Z,81.06
2024-05-09T00:05:37.455Z,80.70
2024-05-09T00:06:12.589Z,81.24
2024-05-09T00:06:45.915Z,80.66
2024-05-09T00:07:17.695Z,80.77
2024-05-09T00:07:49.555Z,81.16
2024-05-09T00:08:21.674Z,80.88
2024-05-09T00:08:53.446Z,81.21
2024-05-09T00:09:25.634Z,80.80
2024-05-09T00:09:57.468Z,81.13
2024-05-09T00:10:35.816Z,80.62
2024-05-09T00:11:13.405Z,80.91
2024-05-09T00:11:45.423Z,80.91
2024-05-09T00:12:17.461Z,81.19
2024-05-09T00:12:49.798Z,81.34
2024-05-09T00:13:21.635Z,80.89
2024-05-09T00:13:53.729Z,80.97
2024-05-09T00:14:25.801Z,81.55
2024-05-09T00:14:57.947Z,81.06
2024-05-09T00:15:30.375Z,80.65
2024-05-09T00:16:02.209Z,81.43
2024-05-09T00:16:33.991Z,80.81
2024-05-09T00:17:06.820Z,80.44
2024-05-09T00:17:38.966Z,81.06
2024-05-09T00:18:11.192Z,81.40
2024-05-09T00:18:43.394Z,80.92
2024-05-09T00:19:18.073Z,80.51
2024-05-09T00:19:50.109Z,80.92
2024-05-09T00:20:28.125Z,81.41
2024-05-09T00:21:06.644Z,80.82
2024-05-09T00:21:45.958Z,80.85
2024-05-09T00:22:18.736Z,80.99
2024-05-09T00:22:50.597Z,80.41
2024-05-09T00:23:22.506Z,81.14
2024-05-09T00:23:55.746Z,80.37
2024-05-09T00:24:28.628Z,80.65
2024-05-09T00:25:00.416Z,80.55
2024-05-09T00:25:32.221Z,80.46
2024-05-09T00:26:05.474Z,80.47
2024-05-09T00:26:37.422Z,80.75
2024-05-09T00:27:11.249Z,80.27
2024-05-09T00:27:44.819Z,80.08
2024-05-09T00:28:16.642Z,80.81
2024-05-09T00:28:48.485Z,80.25
2024-05-09T00:29:20.778Z,80.51
2024-05-09T00:29:53.257Z,81.29
2024-05-09T00:30:33.401Z,80.93
2024-05-09T00:31:07.795Z,80.97
2024-05-09T00:31:39.986Z,80.69
2024-05-09T00:32:11.923Z,81.04
2024-05-09T00:32:47.757Z,80.79
2024-05-09T00:33:21.517Z,80.49
2024-05-09T00:33:53.528Z,80.75
2024-05-09T00:34:25.420Z,80.71
2024-05-09T00:34:57.332Z,81.08
2024-05-09T00:35:29.203Z,80.59
2024-05-09T00:36:01.055Z,80.96
2024-05-09T00:36:32.864Z,80.86
2024-05-09T00:37:04.651Z,80.35
2024-05-09T00:37:36.986Z,80.77
2024-05-09T00:38:09.630Z,80.49
2024-05-09T00:38:41.475Z,80.20
2024-05-09T00:39:13.587Z,80.87
2024-05-09T00:39:45.448Z,81.04
2024-05-09T00:40:26.515Z,80.92
2024-05-09T00:41:05.380Z,81.15
2024-05-09T00:41:37.389Z,80.90
2024-05-09T00:42:09.292Z,80.50
2024-05-09T00:42:41.180Z,80.44
2024-05-09T00:43:15.016Z,79.96
2024-05-09T00:43:47.359Z,80.29
2024-05-09T00:44:19.220Z,80.14
2024-05-09T00:44:50.994Z,80.10
2024-05-09T00:45:23.017Z,79.70
2024-05-09T00:45:56.906Z,80.27
2024-05-09T00:46:28.949Z,79.82
2024-05-09T00:47:00.787Z,79.83
2024-05-09T00:47:33.382Z,79.61
2024-05-09T00:48:08.530Z,80.23
2024-05-09T00:48:41.829Z,79.67
2024-05-09T00:49:13.918Z,79.66
2024-05-09T00:49:45.847Z,79.53
2024-05-09T00:50:23.023Z,80.18
2024-05-09T00:51:02.408Z,80.01
2024-05-09T00:51:34.719Z,80.28
2024-05-09T00:52:06.732Z,79.76
2024-05-09T00:52:40.058Z,80.14
2024-05-09T00:53:15.753Z,80.02
2024-05-09T00:53:48.285Z,79.23
2024-05-09T00:54:21.074Z,79.50
2024-05-09T00:54:55.662Z,79.84
2024-05-09T00:55:27.709Z,79.47
2024-05-09T00:56:00.431Z,79.53
2024-05-09T00:56:34.562Z,79.18
2024-05-09T00:57:06.648Z,79.98
2024-05-09T00:57:38.790Z,79.84
2024-05-09T00:58:15.418Z,79.94
2024-05-09T00:58:48.689Z,79.60
2024-05-09T00:59:22.792Z,79.89
2024-05-09T00:59:55.745Z,79.36
2024-05-09T01:00:38.221Z,79.77
2024-05-09T01:01:12.326Z,79.16
2024-05-09T01:01:44.966Z,78.91
2024-05-09T01:02:17.995Z,78.72
2024-05-09T01:02:50.165Z,79.26
2024-05-09T01:03:23.017Z,78.84
2024-05-09T01:03:55.132Z,78.30
2024-05-09T01:04:27.360Z,78.53
2024-05-09T01:04:59.499Z,79.12
2024-05-09T01:05:31.424Z,78.40
2024-05-09T01:06:03.389Z,78.97
2024-05-09T01:06:35.619Z,77.82
2024-05-09T01:07:09.898Z,78.01
2024-05-09T01:07:42.471Z,77.29
2024-05-09T01:08:14.369Z,77.42
2024-05-09T01:08:46.617Z,76.89
2024-05-09T01:09:18.432Z,77.12
2024-05-09T01:09:50.236Z,77.40
2024-05-09T01:10:28.287Z,76.76
2024-05-09T01:11:07.110Z,75.86
2024-05-09T01:11:39.932Z,75.65
2024-05-09T01:12:12.608Z,75.83
2024-05-09T01:12:45.584Z,75.73
2024-05-09T01:13:20.791Z,75.32
2024-05-09T01:13:52.659Z,74.90
2024-05-09T01:14:24.752Z,75.04
2024-05-09T01:14:56.681Z,75.01
2024-05-09T01:15:28.915Z,74.65
2024-05-09T01:16:01.847Z,74.62
2024-05-09T01:16:33.765Z,75.07
2024-05-09T01:17:08.602Z,74.62
2024-05-09T01:17:40.954Z,74.65
2024-05-09T01:18:14.016Z,75.25
2024-05-09T01:18:46.179Z,75.97
2024-05-09T01:19:22.684Z,76.44
2024-05-09T01:19:56.436Z,76.15
2024-05-09T01:20:37.509Z,75.90
2024-05-09T01:21:14.403Z,75.24
2024-05-09T01:21:46.256Z,75.51
2024-05-09T01:22:24.941Z,75.66
2024-05-09T01:22:57.325Z,75.60
2024-05-09T01:23:31.923Z,75.72
2024-05-09T01:24:05.016Z,76.45
2024-05-09T01:24:37.126Z,75.78
2024-05-09T01:25:09.159Z,75.64
2024-05-09T01:25:45.979Z,75.79
2024-05-09T01:26:18.451Z,75.69
2024-05-09T01:26:50.664Z,75.69
2024-05-09T01:27:22.976Z,75.75
2024-05-09T01:27:54.714Z,76.14
2024-05-09T01:28:39.122Z,75.93
2024-05-09T01:29:11.046Z,75.61
2024-05-09T01:29:43.003Z,74.54
2024-05-09T01:30:20.813Z,75.24
2024-05-09T01:30:53.123Z,74.86
2024-05-09T01:31:25.784Z,75.59
2024-05-09T01:31:59.312Z,75.00
2024-05-09T01:32:31.635Z,75.34
2024-05-09T01:33:07.632Z,75.00
2024-05-09T01:33:42.491Z,74.73
2024-05-09T01:34:47.517Z,74.60
2024-05-09T01:35:22.424Z,74.85
2024-05-09T01:35:54.289Z,74.58
2024-05-09T01:36:26.526Z,74.75
2024-05-09T01:36:58.254Z,74.85
2024-05-09T01:37:30.426Z,74.50
2024-05-09T01:38:02.678Z,75.03
2024-05-09T01:38:34.768Z,75.21
2024-05-09T01:39:06.545Z,75.06
2024-05-09T01:39:38.532Z,74.84
2024-05-09T01:40:14.993Z,74.83
2024-05-09T01:40:51.923Z,75.10
2024-05-09T01:41:23.855Z,74.86
2024-05-09T01:41:55.867Z,75.35
2024-05-09T01:42:27.789Z,75.03
2024-05-09T01:42:59.930Z,74.72
2024-05-09T01:43:33.382Z,74.85
2024-05-09T01:44:05.213Z,74.86
2024-05-09T01:44:37.742Z,74.84
2024-05-09T01:45:12.435Z,74.82
2024-05-09T01:45:44.213Z,75.48
2024-05-09T01:46:16.112Z,75.44
2024-05-09T01:46:49.070Z,75.65
2024-05-09T01:47:21.506Z,75.46
2024-05-09T01:47:53.834Z,74.66
2024-05-09T01:48:26.591Z,75.12
2024-05-09T01:48:59.487Z,74.77
2024-05-09T01:49:35.759Z,75.07
2024-05-09T01:50:10.710Z,74.93
2024-05-09T01:50:43.464Z,75.70
2024-05-09T01:51:15.618Z,75.61
2024-05-09T01:51:47.462Z,75.19
2024-05-09T01:52:19.266Z,75.61
2024-05-09T01:52:51.729Z,75.47
2024-05-09T01:53:25.071Z,74.76
2024-05-09T01:53:58.055Z,75.43
2024-05-09T01:54:31.345Z,75.00
2024-05-09T01:55:06.398Z,75.18
2024-05-09T01:55:39.064Z,74.77
2024-05-09T01:56:14.473Z,74.70
2024-05-09T01:56:46.346Z,74.64
2024-05-09T01:57:19.904Z,75.26
2024-05-09T01:57:51.640Z,75.35
2024-05-09T01:58:23.487Z,75.26
2024-05-09T01:58:55.332Z,75.99
2024-05-09T01:59:27.384Z,75.73
2024-05-09T02:00:00.798Z,74.70
2024-05-09T02:00:38.585Z,74.48
2024-05-09T02:01:13.450Z,74.41
2024-05-09T02:01:56.404Z,74.09
2024-05-09T02:02:29.629Z,73.73
2024-05-09T02:03:01.755Z,74.00
2024-05-09T02:03:34.610Z,73.01
2024-05-09T02:04:06.879Z,73.60
2024-05-09T02:04:40.349Z,72.59
2024-05-09T02:05:14.152Z,72.82
2024-05-09T02:05:48.671Z,72.16
2024-05-09T02:06:20.518Z,72.46
2024-05-09T02:06:52.968Z,72.28
2024-05-09T02:07:25.524Z,71.91
2024-05-09T02:07:57.430Z,71.83
2024-05-09T02:08:29.775Z,72.09
2024-05-09T02:09:01.534Z,72.25
2024-05-09T02:09:33.373Z,71.50
2024-05-09T02:10:13.805Z,71.76
2024-05-09T02:10:49.356Z,71.44
2024-05-09T02:11:23.870Z,71.54
2024-05-09T02:11:56.293Z,71.54
2024-05-09T02:12:30.138Z,71.90
2024-05-09T02:13:01.907Z,71.35
2024-05-09T02:13:33.733Z,70.81
2024-05-09T02:14:06.925Z,71.33
2024-05-09T02:14:39.716Z,71.50
2024-05-09T02:15:12.037Z,70.68
2024-05-09T02:15:43.932Z,70.78
2024-05-09T02:16:15.697Z,70.54
2024-05-09T02:16:49.932Z,70.47
2024-05-09T02:17:21.797Z,70.65
2024-05-09T02:17:54.334Z,70.91
2024-05-09T02:18:26.374Z,70.41
2024-05-09T02:18:58.398Z,69.98
2024-05-09T02:19:30.547Z,70.52
2024-05-09T02:20:06.035Z,69.92
2024-05-09T02:20:39.711Z,69.71
2024-05-09T02:21:11.603Z,69.97
2024-05-09T02:21:43.433Z,69.43
2024-05-09T02:22:15.263Z,68.68
2024-05-09T02:22:48.040Z,68.62
2024-05-09T02:23:19.853Z,68.38
2024-05-09T02:23:51.641Z,68.71
2024-05-09T02:24:23.836Z,68.01
2024-05-09T02:24:55.644Z,67.66
2024-05-09T02:25:27.813Z,67.90
2024-05-09T02:25:59.631Z,67.49
2024-05-09T02:26:31.502Z,66.97
2024-05-09T02:27:04.512Z,65.75
2024-05-09T02:27:36.259Z,66.14
2024-05-09T02:28:08.067Z,66.30
2024-05-09T02:28:41.336Z,67.04
2024-05-09T02:29:13.476Z,66.50
2024-05-09T02:29:45.459Z,66.11
2024-05-09T02:30:25.894Z,65.74
2024-05-09T02:31:10.734Z,65.88
2024-05-09T02:31:43.975Z,65.08
2024-05-09T02:32:16.765Z,65.11
2024-05-09T02:32:49.409Z,64.47
2024-05-09T02:33:21.762Z,64.84
2024-05-09T02:33:54.226Z,64.33
2024-05-09T02:34:46.894Z,64.69
2024-05-09T02:35:19.025Z,63.73
2024-05-09T02:35:50.825Z,63.59
2024-05-09T02:36:22.956Z,63.33
2024-05-09T02:36:56.625Z,62.27
2024-05-09T02:37:28.777Z,63.39
2024-05-09T02:38:00.762Z,63.36
2024-05-09T02:38:32.817Z,62.62
2024-05-09T02:39:06.771Z,63.04
2024-05-09T02:39:38.540Z,63.32
2024-05-09T02:40:14.705Z,62.68
2024-05-09T02:40:49.882Z,62.68
2024-05-09T02:41:21.695Z,63.30
2024-05-09T02:41:53.570Z,62.37
2024-05-09T02:42:25.355Z,63.30
2024-05-09T02:42:57.352Z,62.96
2024-05-09T02:43:29.168Z,62.85
2024-05-09T02:44:00.985Z,62.98
2024-05-09T02:44:32.793Z,62.65
2024-05-09T02:45:04.946Z,62.24
2024-05-09T02:45:36.798Z,62.20
2024-05-09T02:46:08.596Z,61.58
2024-05-09T02:46:41.387Z,60.73
2024-05-09T02:47:13.280Z,61.72
2024-05-09T02:47:46.559Z,60.32
2024-05-09T02:48:18.611Z,59.24
2024-05-09T02:48:50.570Z,60.73
2024-05-09T02:49:23.725Z,59.58
2024-05-09T02:49:55.656Z,59.76
2024-05-09T02:50:34.475Z,59.25
2024-05-09T02:51:10.642Z,58.99
2024-05-09T02:51:43.536Z,58.68
2024-05-09T02:52:18.489Z,58.78
2024-05-09T02:52:50.556Z,57.64
2024-05-09T02:53:22.789Z,58.11
2024-05-09T02:53:54.703Z,57.43
2024-05-09T02:54:26.833Z,56.67
2024-05-09T02:55:01.393Z,56.36
2024-05-09T02:55:34.361Z,55.99
2024-05-09T02:56:06.585Z,56.38
2024-05-09T02:56:41.193Z,56.18
2024-05-09T02:57:13.011Z,55.89
2024-05-09T02:57:44.769Z,55.90
2024-05-09T02:58:16.873Z,55.86
2024-05-09T02:58:48.952Z,55.38
2024-05-09T02:59:21.468Z,55.12
2024-05-09T02:59:53.475Z,54.98
2024-05-09T03:00:29.976Z,55.20
2024-05-09T03:01:09.717Z,55.17
2024-05-09T03:01:42.355Z,55.25
2024-05-09T03:02:14.420Z,54.50
2024-05-09T03:02:46.331Z,55.01
2024-05-09T03:03:18.479Z,54.79
2024-05-09T03:03:51.641Z,55.48
2024-05-09T03:04:23.874Z,54.77
2024-05-09T03:04:56.081Z,55.16
2024-05-09T03:05:28.226Z,54.72
2024-05-09T03:06:01.394Z,54.79
2024-05-09T03:06:33.491Z,55.05
2024-05-09T03:07:05.758Z,54.78
2024-05-09T03:07:44.000Z,54.01
2024-05-09T03:08:15.854Z,54.69
2024-05-09T03:08:47.740Z,54.58
2024-05-09T03:09:20.514Z,53.97
2024-05-09T03:09:52.500Z,53.71
2024-05-09T03:10:28.552Z,54.31
2024-05-09T03:11:01.243Z,53.74
2024-05-09T03:11:33.161Z,54.03
2024-05-09T03:12:06.217Z,53.76
2024-05-09T03:12:39.284Z,53.59
2024-05-09T03:13:14.563Z,53.78
2024-05-09T03:13:52.972Z,53.82
2024-05-09T03:14:25.228Z,53.30
2024-05-09T03:14:57.074Z,53.82
2024-05-09T03:15:31.616Z,53.41
2024-05-09T03:16:04.214Z,54.07
2024-05-09T03:16:38.720Z,53.95
2024-05-09T03:17:10.703Z,53.51
2024-05-09T03:17:42.628Z,53.95
2024-05-09T03:18:16.237Z,53.61
2024-05-09T03:18:48.636Z,53.46
2024-05-09T03:19:20.773Z,53.25
2024-05-09T03:19:52.682Z,53.29
2024-05-09T03:20:32.261Z,53.63
2024-05-09T03:21:07.514Z,53.36
2024-05-09T03:21:40.734Z,52.92
2024-05-09T03:22:12.513Z,53.45
2024-05-09T03:22:44.334Z,53.38
2024-05-09T03:23:16.459Z,53.36
2024-05-09T03:23:48.754Z,52.88
2024-05-09T03:24:20.648Z,52.91
2024-05-09T03:24:53.081Z,53.44
2024-05-09T03:25:25.166Z,52.97
2024-05-09T03:25:59.691Z,52.62
2024-05-09T03:26:31.693Z,52.74
2024-05-09T03:27:04.235Z,53.17
2024-05-09T03:27:40.237Z,52.63
2024-05-09T03:28:13.697Z,52.95
2024-05-09T03:28:45.828Z,52.42
2024-05-09T03:29:17.791Z,52.50
2024-05-09T03:29:50.203Z,52.70
2024-05-09T03:30:35.690Z,52.78
2024-05-09T03:31:13.054Z,52.73
2024-05-09T03:31:45.244Z,52.19
2024-05-09T03:32:18.617Z,52.19
2024-05-09T03:32:50.523Z,52.04
2024-05-09T03:33:22.914Z,52.86
2024-05-09T03:33:55.132Z,52.28
2024-05-09T03:34:27.001Z,51.96
2024-05-09T03:34:58.996Z,51.90
2024-05-09T03:35:31.097Z,51.79
2024-05-09T03:36:06.800Z,51.38
2024-05-09T03:36:44.476Z,52.16
2024-05-09T03:37:16.197Z,51.96
2024-05-09T03:37:48.256Z,51.60
2024-05-09T03:38:20.055Z,51.96
2024-05-09T03:38:52.650Z,52.01
2024-05-09T03:39:24.449Z,51.59
2024-05-09T03:40:23.358Z,51.46
2024-05-09T03:40:59.225Z,52.03
2024-05-09T03:41:31.119Z,52.20
2024-05-09T03:42:06.152Z,52.42
2024-05-09T03:42:40.550Z,51.89
2024-05-09T03:43:14.254Z,51.72
2024-05-09T03:43:46.315Z,51.69
2024-05-09T03:44:18.181Z,51.64
2024-05-09T03:44:51.418Z,51.41
2024-05-09T03:45:23.226Z,51.39
2024-05-09T03:45:55.244Z,51.31
2024-05-09T03:46:47.789Z,51.37
2024-05-09T03:47:19.730Z,50.63
2024-05-09T03:47:52.870Z,51.16
2024-05-09T03:48:25.161Z,51.24
2024-05-09T03:48:57.382Z,51.42
2024-05-09T03:49:29.245Z,51.18
2024-05-09T03:50:01.989Z,50.85
2024-05-09T03:50:35.966Z,51.00
2024-05-09T03:51:08.785Z,50.66
2024-05-09T03:51:40.746Z,50.24
2024-05-09T03:52:12.770Z,49.85
2024-05-09T03:52:45.672Z,50.84
2024-05-09T03:53:17.722Z,49.89
2024-05-09T03:53:49.726Z,50.32
2024-05-09T03:54:23.590Z,50.64
2024-05-09T03:54:55.555Z,50.03
2024-05-09T03:55:28.201Z,49.77
2024-05-09T03:56:00.110Z,49.39
2024-05-09T03:56:32.265Z,49.94
2024-05-09T03:57:04.250Z,49.83
2024-05-09T03:57:36.880Z,49.69
2024-05-09T03:58:08.758Z,49.63
2024-05-09T03:58:41.039Z,49.93
2024-05-09T03:59:13.067Z,49.97
2024-05-09T03:59:44.965Z,49.74
2024-05-09T04:00:22.558Z,49.94
2024-05-09T04:01:03.733Z,49.16
2024-05-09T04:01:35.636Z,49.57
2024-05-09T04:02:08.080Z,49.09
2024-05-09T04:02:46.361Z,49.05
2024-05-09T04:03:19.327Z,49.30
2024-05-09T04:03:51.546Z,49.09
2024-05-09T04:04:23.776Z,49.87
2024-05-09T04:04:55.748Z,49.58
2024-05-09T04:05:29.520Z,50.11
2024-05-09T04:06:03.502Z,49.71
2024-05-09T04:06:35.332Z,49.92
2024-05-09T04:07:07.330Z,49.91
2024-05-09T04:07:43.909Z,50.23
2024-05-09T04:08:16.143Z,49.98
2024-05-09T04:08:48.022Z,50.98
2024-05-09T04:09:19.797Z,50.63
2024-05-09T04:09:53.160Z,50.71
2024-05-09T04:10:33.334Z,50.70
2024-05-09T04:11:07.068Z,50.75
2024-05-09T04:11:39.342Z,51.04
2024-05-09T04:12:11.279Z,51.11
2024-05-09T04:12:43.413Z,50.43
2024-05-09T04:13:15.167Z,50.98
2024-05-09T04:13:47.710Z,51.44
2024-05-09T04:14:19.590Z,51.09
2024-05-09T04:14:51.394Z,50.72
2024-05-09T04:15:23.274Z,51.16
2024-05-09T04:15:55.101Z,51.07
2024-05-09T04:16:27.229Z,51.05
2024-05-09T04:16:59.671Z,50.95
2024-05-09T04:17:31.636Z,51.23
2024-05-09T04:18:03.745Z,50.76
2024-05-09T04:18:38.264Z,50.69
2024-05-09T04:19:10.437Z,50.68
2024-05-09T04:19:42.292Z,50.99
2024-05-09T04:20:24.282Z,50.91
2024-05-09T04:21:05.770Z,50.86
2024-05-09T04:21:37.977Z,50.89
2024-05-09T04:22:09.967Z,50.73
2024-05-09T04:22:41.778Z,51.45
2024-05-09T04:23:14.579Z,51.24
2024-05-09T04:23:53.185Z,51.06
2024-05-09T04:24:26.235Z,50.42
2024-05-09T04:24:58.007Z,50.88
2024-05-09T04:25:30.997Z,50.78
2024-05-09T04:26:04.404Z,50.63
2024-05-09T04:26:36.288Z,50.29
2024-05-09T04:27:08.432Z,50.81
2024-05-09T04:27:40.230Z,50.39
2024-05-09T04:28:12.722Z,50.00
2024-05-09T04:28:44.666Z,49.97
2024-05-09T04:29:17.611Z,50.22
2024-05-09T04:29:49.924Z,49.91
2024-05-09T04:30:33.632Z,49.48
2024-05-09T04:31:10.147Z,49.69
2024-05-09T04:31:42.097Z,49.64
2024-05-09T04:32:14.168Z,49.88
2024-05-09T04:32:46.289Z,49.82
2024-05-09T04:33:19.497Z,49.35
2024-05-09T04:33:51.710Z,49.37
2024-05-09T04:34:24.341Z,49.14
2024-05-09T04:34:56.208Z,49.85
2024-05-09T04:35:28.544Z,49.66
2024-05-09T04:36:00.983Z,49.45
2024-05-09T04:36:32.860Z,49.12
2024-05-09T04:37:05.957Z,49.53
2024-05-09T04:37:37.770Z,49.16
2024-05-09T04:38:10.195Z,49.42
2024-05-09T04:38:42.054Z,49.31
2024-05-09T04:39:15.867Z,49.59
2024-05-09T04:39:49.092Z,49.22
2024-05-09T04:40:28.321Z,48.88
2024-05-09T04:41:05.681Z,48.62
2024-05-09T04:41:38.496Z,49.00
2024-05-09T04:42:10.307Z,49.00
2024-05-09T04:42:42.079Z,49.15
2024-05-09T04:43:17.672Z,49.44
2024-05-09T04:43:49.826Z,49.14
2024-05-09T04:44:24.845Z,48.10
2024-05-09T04:44:58.717Z,48.82
2024-05-09T04:45:31.958Z,48.75
2024-05-09T04:46:04.436Z,48.53
2024-05-09T04:46:36.228Z,48.47
2024-05-09T04:47:08.128Z,48.49
2024-05-09T04:47:41.448Z,48.62
2024-05-09T04:48:13.932Z,48.09
2024-05-09T04:48:47.719Z,48.26
2024-05-09T04:49:19.808Z,48.62
2024-05-09T04:49:51.968Z,48.50
2024-05-09T04:50:30.423Z,48.40
2024-05-09T04:51:15.028Z,47.62
2024-05-09T04:51:47.152Z,47.65
2024-05-09T04:52:18.941Z,47.96
2024-05-09T04:52:51.527Z,47.76
2024-05-09T04:53:23.499Z,47.58
2024-05-09T04:53:55.334Z,47.43
2024-05-09T04:54:34.147Z,47.56
2024-05-09T04:55:08.261Z,47.38
2024-05-09T04:55:40.686Z,47.30
2024-05-09T04:56:12.691Z,46.79
2024-05-09T04:56:44.556Z,47.48
2024-05-09T04:57:17.031Z,46.58
2024-05-09T04:58:09.291Z,46.41
2024-05-09T04:58:41.230Z,46.53
2024-05-09T04:59:13.323Z,46.26
2024-05-09T04:59:45.932Z,46.77
2024-05-09T05:00:25.722Z,46.42
2024-05-09T05:01:03.952Z,47.17
2024-05-09T05:01:36.279Z,47.07
2024-05-09T05:02:08.214Z,47.13
2024-05-09T05:02:42.321Z,46.86
2024-05-09T05:03:16.220Z,47.47
2024-05-09T05:03:49.067Z,48.02
2024-05-09T05:04:21.235Z,47.46
2024-05-09T05:04:54.793Z,47.02
2024-05-09T05:05:27.185Z,46.78
2024-05-09T05:05:59.021Z,46.79
2024-05-09T05:06:30.826Z,47.24
2024-05-09T05:07:03.087Z,46.70
2024-05-09T05:07:35.043Z,47.44
2024-05-09T05:08:11.289Z,47.31
2024-05-09T05:08:44.317Z,47.39
2024-05-09T05:09:16.212Z,47.16
2024-05-09T05:09:48.997Z,46.62
2024-05-09T05:10:25.541Z,46.83
2024-05-09T05:11:01.470Z,46.61
2024-05-09T05:11:33.399Z,46.28
2024-05-09T05:12:25.479Z,47.17
2024-05-09T05:13:19.000Z,46.85
2024-05-09T05:13:51.541Z,46.27
2024-05-09T05:14:23.687Z,46.35
2024-05-09T05:14:55.962Z,46.33
2024-05-09T05:15:31.962Z,45.35
2024-05-09T05:16:05.156Z,46.03
2024-05-09T05:16:38.472Z,46.16
2024-05-09T05:17:10.633Z,46.51
2024-05-09T05:17:42.973Z,45.90
2024-05-09T05:18:16.811Z,45.23
2024-05-09T05:18:49.097Z,45.83
2024-05-09T05:19:20.988Z,44.81
2024-05-09T05:19:53.631Z,45.24
2024-05-09T05:20:32.587Z,45.17
2024-05-09T05:21:06.166Z,44.82
2024-05-09T05:21:37.922Z,45.14
2024-05-09T05:22:11.007Z,44.62
2024-05-09T05:22:44.750Z,44.76
2024-05-09T05:23:19.159Z,44.70
2024-05-09T05:23:52.190Z,44.13
2024-05-09T05:24:24.341Z,44.45
2024-05-09T05:24:56.403Z,44.49
2024-05-09T05:25:28.376Z,44.70
2024-05-09T05:26:00.429Z,43.74
2024-05-09T05:26:33.026Z,43.76
2024-05-09T05:27:05.120Z,44.48
2024-05-09T05:27:37.644Z,44.97
2024-05-09T05:28:11.045Z,44.23
2024-05-09T05:28:43.096Z,44.29
2024-05-09T05:29:17.168Z,44.29
2024-05-09T05:29:50.392Z,44.62
2024-05-09T05:30:29.300Z,44.32
2024-05-09T05:31:06.146Z,43.86
2024-05-09T05:31:38.704Z,43.81
2024-05-09T05:32:10.675Z,44.12
2024-05-09T05:32:42.890Z,44.34
2024-05-09T05:33:17.057Z,44.65
2024-05-09T05:33:51.270Z,44.33
2024-05-09T05:34:25.188Z,43.84
2024-05-09T05:34:57.332Z,43.73
2024-05-09T05:35:30.011Z,43.70
2024-05-09T05:36:02.309Z,43.47
2024-05-09T05:36:35.439Z,44.06
2024-05-09T05:37:07.214Z,43.65
2024-05-09T05:37:39.282Z,44.14
2024-05-09T05:38:11.363Z,43.88
2024-05-09T05:38:44.811Z,44.04
2024-05-09T05:39:16.672Z,44.12
2024-05-09T05:39:48.711Z,43.99
2024-05-09T05:40:28.342Z,44.95
2024-05-09T05:41:07.374Z,43.78
2024-05-09T05:41:39.119Z,43.24
2024-05-09T05:42:11.174Z,44.12
2024-05-09T05:42:46.442Z,43.90
2024-05-09T05:43:18.376Z,44.04
2024-05-09T05:43:50.887Z,43.62
2024-05-09T05:44:22.827Z,43.31
2024-05-09T05:44:54.682Z,43.60
2024-05-09T05:45:26.703Z,43.86
2024-05-09T05:45:58.692Z,43.21
2024-05-09T05:46:32.361Z,43.30
2024-05-09T05:47:06.658Z,43.77
2024-05-09T05:47:38.717Z,43.19
2024-05-09T05:48:14.878Z,43.57
2024-05-09T05:48:46.835Z,43.15
2024-05-09T05:49:19.638Z,43.26
2024-05-09T05:49:52.127Z,43.98
2024-05-09T05:50:32.447Z,43.53
2024-05-09T05:51:11.088Z,43.58
2024-05-09T05:51:42.923Z,43.40
2024-05-09T05:52:18.450Z,43.84
2024-05-09T05:52:50.831Z,43.41
2024-05-09T05:53:22.642Z,43.76
2024-05-09T05:53:55.539Z,43.57
2024-05-09T05:54:27.530Z,43.35
2024-05-09T05:54:59.877Z,43.79
2024-05-09T05:55:32.954Z,43.66
2024-05-09T05:56:06.231Z,43.44
2024-05-09T05:56:38.597Z,42.74
2024-05-09T05:57:10.566Z,43.05
2024-05-09T05:57:42.757Z,43.79
2024-05-09T05:58:14.992Z,43.73
2024-05-09T05:58:46.981Z,44.25
2024-05-09T05:59:20.083Z,43.91
2024-05-09T05:59:53.743Z,43.93
2024-05-09T06:00:30.114Z,43.90
2024-05-09T06:01:10.053Z,44.35
2024-05-09T06:01:42.268Z,44.13
2024-05-09T06:02:16.744Z,44.08
2024-05-09T06:02:49.209Z,44.59
2024-05-09T06:03:21.335Z,44.31
2024-05-09T06:03:53.372Z,43.80
2024-05-09T06:04:25.909Z,44.38
2024-05-09T06:04:58.247Z,43.95
2024-05-09T06:05:30.934Z,43.70
2024-05-09T06:06:03.288Z,43.94
2024-05-09T06:06:35.368Z,44.32
2024-05-09T06:07:07.616Z,44.61
2024-05-09T06:07:40.021Z,44.42
2024-05-09T06:08:12.184Z,43.56
2024-05-09T06:08:44.479Z,43.94
2024-05-09T06:09:16.683Z,43.67
2024-05-09T06:09:50.512Z,43.10
2024-05-09T06:10:26.325Z,43.64
2024-05-09T06:11:06.699Z,43.50
2024-05-09T06:11:40.092Z,43.87
2024-05-09T06:12:12.849Z,43.58
2024-05-09T06:13:05.487Z,43.81
2024-05-09T06:13:42.050Z,43.13
2024-05-09T06:14:14.569Z,43.24
2024-05-09T06:14:46.430Z,42.67
2024-05-09T06:15:18.514Z,42.91
2024-05-09T06:15:50.302Z,43.74
2024-05-09T06:16:22.162Z,43.42
2024-05-09T06:16:58.301Z,44.02
2024-05-09T06:17:30.528Z,43.58
2024-05-09T06:18:06.908Z,43.42
2024-05-09T06:18:39.006Z,44.50
2024-05-09T06:19:11.052Z,44.10
2024-05-09T06:19:42.962Z,44.16
2024-05-09T06:20:20.832Z,44.35
2024-05-09T06:20:59.394Z,44.14
2024-05-09T06:21:32.761Z,43.58
2024-05-09T06:22:04.544Z,43.64
2024-05-09T06:22:36.587Z,44.04
2024-05-09T06:23:09.396Z,44.22
2024-05-09T06:23:45.930Z,43.52
2024-05-09T06:24:18.158Z,43.28
2024-05-09T06:24:49.901Z,42.65
2024-05-09T06:25:22.244Z,43.33
2024-05-09T06:25:54.109Z,43.81
2024-05-09T06:26:25.968Z,43.98
2024-05-09T06:26:58.422Z,43.95
2024-05-09T06:27:30.453Z,43.26
2024-05-09T06:28:03.197Z,43.38
2024-05-09T06:28:34.988Z,42.98
2024-05-09T06:29:08.778Z,43.43
2024-05-09T06:29:40.660Z,42.43
2024-05-09T06:30:21.211Z,43.07
2024-05-09T06:31:00.576Z,42.69
2024-05-09T06:31:40.750Z,42.46
2024-05-09T06:32:12.968Z,42.15
2024-05-09T06:32:45.430Z,42.73
2024-05-09T06:33:18.479Z,43.15
2024-05-09T06:33:51.133Z,42.56
2024-05-09T06:34:23.369Z,42.19
2024-05-09T06:34:56.679Z,42.10
2024-05-09T06:35:30.159Z,42.42
2024-05-09T06:36:02.443Z,42.51
2024-05-09T06:36:34.872Z,41.85
2024-05-09T06:37:07.067Z,42.41
2024-05-09T06:37:39.093Z,42.82
2024-05-09T06:38:11.996Z,42.80
2024-05-09T06:38:45.670Z,43.31
2024-05-09T06:39:17.778Z,42.43
2024-05-09T06:39:51.060Z,42.75
2024-05-09T06:40:25.944Z,42.73
2024-05-09T06:41:06.746Z,42.55
2024-05-09T06:41:38.583Z,42.72
2024-05-09T06:42:10.519Z,42.24
2024-05-09T06:42:42.347Z,42.28
2024-05-09T06:43:18.528Z,42.61
2024-05-09T06:43:53.976Z,42.37
2024-05-09T06:44:26.049Z,41.74
2024-05-09T06:44:57.866Z,42.23
2024-05-09T06:45:30.197Z,41.89
2024-05-09T06:46:03.597Z,41.63
2024-05-09T06:46:39.081Z,42.05
2024-05-09T06:47:12.485Z,42.55
2024-05-09T06:47:45.452Z,42.26
2024-05-09T06:48:19.288Z,41.70
2024-05-09T06:48:53.570Z,41.80
2024-05-09T06:49:30.101Z,41.39
2024-05-09T06:50:02.640Z,40.97
2024-05-09T06:50:37.813Z,41.36
2024-05-09T06:51:11.676Z,41.63
2024-05-09T06:51:43.645Z,40.91
2024-05-09T06:52:16.386Z,41.46
2024-05-09T06:52:48.255Z,41.28
2024-05-09T06:53:25.153Z,41.28
2024-05-09T06:53:58.461Z,41.21
2024-05-09T06:54:30.310Z,41.54
2024-05-09T06:55:02.259Z,41.04
2024-05-09T06:55:37.787Z,41.73
2024-05-09T06:56:10.242Z,40.83
2024-05-09T06:56:42.197Z,40.70
2024-05-09T06:57:14.207Z,41.11
2024-05-09T06:57:46.264Z,41.18
2024-05-09T06:58:22.354Z,40.97
2024-05-09T06:58:56.422Z,40.85
2024-05-09T06:59:29.871Z,40.88
2024-05-09T07:00:08.201Z,41.28
2024-05-09T07:00:42.535Z,40.19
2024-05-09T07:01:14.510Z,40.05
2024-05-09T07:01:47.111Z,40.15
2024-05-09T07:02:20.333Z,40.35
2024-05-09T07:02:52.406Z,39.46
2024-05-09T07:03:25.166Z,39.70
2024-05-09T07:03:58.105Z,39.50
2024-05-09T07:04:31.253Z,38.93
2024-05-09T07:05:04.489Z,38.33
2024-05-09T07:05:37.167Z,38.63
2024-05-09T07:06:09.185Z,38.77
2024-05-09T07:06:42.351Z,38.21
2024-05-09T07:07:14.400Z,38.06
2024-05-09T07:07:46.315Z,37.81
2024-05-09T07:08:19.095Z,37.89
2024-05-09T07:08:52.560Z,38.59
2024-05-09T07:09:24.644Z,38.13
2024-05-09T07:09:56.490Z,38.09
2024-05-09T07:10:34.154Z,38.28
2024-05-09T07:11:07.840Z,38.24
2024-05-09T07:11:40.250Z,38.42
2024-05-09T07:12:12.339Z,38.60